createdAt,value
2023-04-04T00:02:59.244Z,63.09
2023-04-04T00:18:05.304Z,50.18
2023-04-04T00:33:08.202Z,53.03
2023-04-04T00:48:11.443Z,56.04
2023-04-04T01:03:14.269Z,57.80
2023-04-04T01:18:20.092Z,59.42
2023-04-04T01:33:28.039Z,59.48
2023-04-04T01:48:30.803Z,53.27
2023-04-04T02:03:33.387Z,54.67
2023-04-04T02:18:36.990Z,56.27
2023-04-04T02:33:39.578Z,57.34
2023-04-04T02:48:42.163Z,58.66
2023-04-04T03:03:44.877Z,59.95
2023-04-04T03:18:48.243Z,61.87
2023-04-04T03:33:50.828Z,55.08
2023-04-04T03:48:53.436Z,57.73
2023-04-04T04:03:56.748Z,63.31
2023-04-04T04:18:59.498Z,49.01
2023-04-04T04:34:05.740Z,52.84
2023-04-04T04:49:08.768Z,57.30
2023-04-04T05:04:11.489Z,59.91
2023-04-04T05:19:14.094Z,59.27
2023-04-04T05:34:16.781Z,50.63
2023-04-04T05:49:19.514Z,53.29
2023-04-04T06:04:22.600Z,55.35
2023-04-04T06:19:25.271Z,55.95
2023-04-04T06:34:28.480Z,56.16
2023-04-04T06:49:31.181Z,55.60
2023-04-04T07:04:35.173Z,54.27
2023-04-04T07:19:37.930Z,53.01
2023-04-04T07:34:40.505Z,52.26
2023-04-04T07:49:43.650Z,52.18
2023-04-04T08:04:46.290Z,51.25
2023-04-04T08:19:49.031Z,49.68
2023-04-04T08:34:52.126Z,48.46
2023-04-04T08:50:01.814Z,48.34
2023-04-04T09:05:07.363Z,47.62
2023-04-04T09:20:35.977Z,46.51
2023-04-04T09:35:43.941Z,45.52
2023-04-04T09:50:47.429Z,45.47
2023-04-04T10:06:00.118Z,43.35
2023-04-04T10:21:15.291Z,42.05
2023-04-04T10:36:29.486Z,42.31
2023-04-04T10:51:37.117Z,44.45
2023-04-04T11:07:03.676Z,42.82
2023-04-04T11:22:06.722Z,43.93
2023-04-04T11:37:20.005Z,43.92
2023-04-04T11:52:23.977Z,43.98
2023-04-04T12:07:29.167Z,44.83
2023-04-04T12:22:35.691Z,44.25
2023-04-04T12:37:38.402Z,45.58
2023-04-04T12:52:41.085Z,45.08
2023-04-04T13:23:06.758Z,44.80
2023-04-04T13:38:09.298Z,45.39
2023-04-04T13:53:11.862Z,46.10
2023-04-04T14:08:14.668Z,46.04
2023-04-04T14:23:17.535Z,46.41
2023-04-04T14:38:20.189Z,47.23
2023-04-04T14:53:23.581Z,48.32
2023-04-04T15:08:26.425Z,47.62
2023-04-04T15:23:28.986Z,47.29
2023-04-04T15:38:31.749Z,48.18
2023-04-04T15:53:34.564Z,47.78
2023-04-04T16:08:37.142Z,47.24
2023-04-04T16:23:39.777Z,48.91
2023-04-04T16:38:42.466Z,48.23
2023-04-04T16:53:45.037Z,48.58
2023-04-04T17:08:49.373Z,49.45
2023-04-04T17:23:52.172Z,50.86
2023-04-04T17:38:54.843Z,52.03
2023-04-04T17:53:57.531Z,53.12
2023-04-04T18:09:00.335Z,54.25
2023-04-04T18:24:04.359Z,55.62
2023-04-04T18:39:07.023Z,56.43
2023-04-04T18:54:09.683Z,57.65
2023-04-04T19:09:12.666Z,62.66
2023-04-04T19:24:15.601Z,50.62
2023-04-04T19:39:20.724Z,53.69
2023-04-04T19:54:34.135Z,56.03
2023-04-04T20:09:40.314Z,61.27
2023-04-04T20:24:46.705Z,50.77
2023-04-04T20:39:57.276Z,53.57
2023-04-04T20:55:02.890Z,56.91
2023-04-04T21:10:19.853Z,62.55
2023-04-04T21:25:43.804Z,51.50
2023-04-04T21:40:46.375Z,54.29
2023-04-04T21:55:49.133Z,56.53
2023-04-04T22:10:52.353Z,61.37
2023-04-04T22:25:54.961Z,50.01
2023-04-04T22:40:58.406Z,53.05
2023-04-04T22:56:01.185Z,55.75
2023-04-04T23:11:03.780Z,60.72
2023-04-04T23:26:06.919Z,50.56
2023-04-04T23:41:11.042Z,53.54
2023-04-04T23:56:13.755Z,55.37
